Hovedside
METAR-TAF:

METAR-TAF

Lufthavner :

Vardø lufthavn. Svartnes

Vardø, Norge

breddegrad: 70-21N, lengdegrad: 031-03E, høyde over havet: 12 m

Gjeldene værobservasjon

Denne rapporten ble laget for 9 timer og 22 minutter siden, klokken 19:20 UTC
Vind 11 kt fra Nordøst
Temperatur 4°C
Luftfuktighet 70%
Trykk 1006 hPa
Sikt 10 km eller mer
Spredte skyer i en høyde av 2300 ft
Brutte skyer i en høyde av 5300 ft

METAR: ENSS 131920Z 05011KT 9999 SCT023 BKN053 04/M01 Q1006 RMK WIND 500FT 04019KT

Tid: 06:42 (04:42 UTC)


TAF: fraværende

Værobservasjoner og værvarsel for over 4000 flyplasser (METAR- og TAF-rapporter).

Tilgjengelige stasjoner er representert av de røde og gule prikkene på kartet.

Hold musepekeren over prikken for å se navnet på stasjonen.

Klikk så for å se værobservasjoner og -varsler.

For å forandre kartet kan du klikke på den grønne knappen med svart kryss for å zoome inn, på den grønne knappen med strek for å zoome ut, eller på de grønne pilene for å se tilstøtende kart.


METAR-TAF: